sensor_id;sensor_type;location;lat;lon;timestamp;P1;durP1;ratioP1;P2;durP2;ratioP2
64959;SDS011;51487;52.266;10.542;2023-07-30T00:01:57;1.80;;;1.58;;
64959;SDS011;51487;52.266;10.542;2023-07-30T00:04:24;1.48;;;1.30;;
64959;SDS011;51487;52.266;10.542;2023-07-30T00:06:50;2.50;;;1.60;;
64959;SDS011;51487;52.266;10.542;2023-07-30T00:09:15;2.15;;;1.50;;
64959;SDS011;51487;52.266;10.542;2023-07-30T00:11:41;1.80;;;1.33;;
64959;SDS011;51487;52.266;10.542;2023-07-30T00:14:07;2.20;;;1.50;;
64959;SDS011;51487;52.266;10.542;2023-07-30T00:16:32;1.88;;;1.45;;
64959;SDS011;51487;52.266;10.542;2023-07-30T00:18:58;1.75;;;1.48;;
64959;SDS011;51487;52.266;10.542;2023-07-30T00:21:24;1.70;;;1.60;;
64959;SDS011;51487;52.266;10.542;2023-07-30T00:23:49;2.63;;;1.80;;
64959;SDS011;51487;52.266;10.542;2023-07-30T00:26:15;1.95;;;1.58;;
64959;SDS011;51487;52.266;10.542;2023-07-30T00:28:40;3.00;;;1.60;;
64959;SDS011;51487;52.266;10.542;2023-07-30T00:31:06;3.05;;;1.50;;
64959;SDS011;51487;52.266;10.542;2023-07-30T00:33:31;1.50;;;1.40;;
64959;SDS011;51487;52.266;10.542;2023-07-30T00:35:57;1.60;;;1.50;;
64959;SDS011;51487;52.266;10.542;2023-07-30T00:38:23;2.33;;;1.63;;
64959;SDS011;51487;52.266;10.542;2023-07-30T00:40:48;2.17;;;1.60;;
64959;SDS011;51487;52.266;10.542;2023-07-30T00:43:14;2.83;;;1.60;;
64959;SDS011;51487;52.266;10.542;2023-07-30T00:45:40;1.70;;;1.55;;
64959;SDS011;51487;52.266;10.542;2023-07-30T00:48:09;1.73;;;1.60;;
64959;SDS011;51487;52.266;10.542;2023-07-30T00:50:38;4.10;;;1.65;;
64959;SDS011;51487;52.266;10.542;2023-07-30T00:53:04;3.42;;;1.75;;
64959;SDS011;51487;52.266;10.542;2023-07-30T00:55:33;3.20;;;1.90;;
64959;SDS011;51487;52.266;10.542;2023-07-30T00:58:00;4.93;;;2.13;;
64959;SDS011;51487;52.266;10.542;2023-07-30T01:00:27;2.20;;;1.60;;
64959;SDS011;51487;52.266;10.542;2023-07-30T01:02:54;2.78;;;1.67;;
64959;SDS011;51487;52.266;10.542;2023-07-30T01:05:21;2.00;;;1.67;;
64959;SDS011;51487;52.266;10.542;2023-07-30T01:07:47;2.45;;;1.70;;
64959;SDS011;51487;52.266;10.542;2023-07-30T01:10:12;1.77;;;1.67;;
64959;SDS011;51487;52.266;10.542;2023-07-30T01:12:38;1.80;;;1.60;;
64959;SDS011;51487;52.266;10.542;2023-07-30T01:15:06;3.85;;;1.70;;
64959;SDS011;51487;52.266;10.542;2023-07-30T01:17:34;4.07;;;1.90;;
64959;SDS011;51487;52.266;10.542;2023-07-30T01:20:00;2.75;;;1.90;;
64959;SDS011;51487;52.266;10.542;2023-07-30T01:22:26;2.13;;;1.80;;
64959;SDS011;51487;52.266;10.542;2023-07-30T01:24:51;1.75;;;1.60;;
64959;SDS011;51487;52.266;10.542;2023-07-30T01:27:19;1.60;;;1.50;;
64959;SDS011;51487;52.266;10.542;2023-07-30T01:29:53;2.75;;;1.70;;
64959;SDS011;51487;52.266;10.542;2023-07-30T01:32:25;2.63;;;1.60;;
64959;SDS011;51487;52.266;10.542;2023-07-30T01:34:53;2.47;;;1.70;;
64959;SDS011;51487;52.266;10.542;2023-07-30T01:37:22;2.35;;;1.75;;
64959;SDS011;51487;52.266;10.542;2023-07-30T01:39:49;2.58;;;1.52;;
64959;SDS011;51487;52.266;10.542;2023-07-30T01:42:15;1.60;;;1.50;;
64959;SDS011;51487;52.266;10.542;2023-07-30T01:44:41;1.83;;;1.70;;
64959;SDS011;51487;52.266;10.542;2023-07-30T01:47:07;3.63;;;1.65;;
64959;SDS011;51487;52.266;10.542;2023-07-30T01:49:33;2.83;;;1.90;;
64959;SDS011;51487;52.266;10.542;2023-07-30T01:51:58;1.75;;;1.60;;
64959;SDS011;51487;52.266;10.542;2023-07-30T01:54:24;2.95;;;1.77;;
64959;SDS011;51487;52.266;10.542;2023-07-30T01:56:50;2.60;;;1.77;;
64959;SDS011;51487;52.266;10.542;2023-07-30T01:59:16;2.15;;;1.63;;
64959;SDS011;51487;52.266;10.542;2023-07-30T02:01:42;1.98;;;1.65;;
64959;SDS011;51487;52.266;10.542;2023-07-30T02:04:08;1.73;;;1.60;;
64959;SDS011;51487;52.266;10.542;2023-07-30T02:06:34;2.58;;;1.75;;
64959;SDS011;51487;52.266;10.542;2023-07-30T02:08:59;1.98;;;1.70;;
64959;SDS011;51487;52.266;10.542;2023-07-30T02:11:25;9.40;;;1.88;;
64959;SDS011;51487;52.266;10.542;2023-07-30T02:13:50;2.42;;;1.60;;
64959;SDS011;51487;52.266;10.542;2023-07-30T02:16:16;2.65;;;1.70;;
64959;SDS011;51487;52.266;10.542;2023-07-30T02:18:42;3.08;;;1.63;;
64959;SDS011;51487;52.266;10.542;2023-07-30T02:21:08;2.58;;;1.88;;
64959;SDS011;51487;52.266;10.542;2023-07-30T02:23:33;1.67;;;1.58;;
64959;SDS011;51487;52.266;10.542;2023-07-30T02:25:59;2.22;;;1.65;;
64959;SDS011;51487;52.266;10.542;2023-07-30T02:28:25;2.42;;;1.60;;
64959;SDS011;51487;52.266;10.542;2023-07-30T02:30:50;2.08;;;1.50;;
64959;SDS011;51487;52.266;10.542;2023-07-30T02:33:16;4.55;;;1.85;;
64959;SDS011;51487;52.266;10.542;2023-07-30T02:35:42;3.45;;;1.70;;
64959;SDS011;51487;52.266;10.542;2023-07-30T02:38:09;1.70;;;1.60;;
64959;SDS011;51487;52.266;10.542;2023-07-30T02:40:34;1.88;;;1.50;;
64959;SDS011;51487;52.266;10.542;2023-07-30T02:43:00;5.28;;;1.67;;
64959;SDS011;51487;52.266;10.542;2023-07-30T02:45:26;2.05;;;1.80;;
64959;SDS011;51487;52.266;10.542;2023-07-30T02:47:52;3.58;;;1.67;;
64959;SDS011;51487;52.266;10.542;2023-07-30T02:50:17;2.88;;;1.70;;
64959;SDS011;51487;52.266;10.542;2023-07-30T02:52:43;1.77;;;1.60;;
64959;SDS011;51487;52.266;10.542;2023-07-30T02:55:09;2.53;;;1.50;;
64959;SDS011;51487;52.266;10.542;2023-07-30T02:57:34;2.28;;;1.75;;
64959;SDS011;51487;52.266;10.542;2023-07-30T03:00:00;1.67;;;1.58;;
64959;SDS011;51487;52.266;10.542;2023-07-30T03:02:25;2.63;;;1.60;;
64959;SDS011;51487;52.266;10.542;2023-07-30T03:04:52;3.80;;;1.55;;
64959;SDS011;51487;52.266;10.542;2023-07-30T03:07:18;2.67;;;1.90;;
64959;SDS011;51487;52.266;10.542;2023-07-30T03:09:44;3.47;;;1.70;;
64959;SDS011;51487;52.266;10.542;2023-07-30T03:12:10;3.05;;;1.65;;
64959;SDS011;51487;52.266;10.542;2023-07-30T03:14:36;2.83;;;1.70;;
64959;SDS011;51487;52.266;10.542;2023-07-30T03:17:02;3.85;;;1.65;;
64959;SDS011;51487;52.266;10.542;2023-07-30T03:19:29;2.50;;;1.80;;
64959;SDS011;51487;52.266;10.542;2023-07-30T03:21:55;2.33;;;1.70;;
64959;SDS011;51487;52.266;10.542;2023-07-30T03:24:21;2.20;;;1.80;;
64959;SDS011;51487;52.266;10.542;2023-07-30T03:26:47;2.22;;;1.70;;
64959;SDS011;51487;52.266;10.542;2023-07-30T03:29:12;4.60;;;1.80;;
64959;SDS011;51487;52.266;10.542;2023-07-30T03:31:39;3.35;;;1.90;;
64959;SDS011;51487;52.266;10.542;2023-07-30T03:34:05;3.58;;;1.77;;
64959;SDS011;51487;52.266;10.542;2023-07-30T03:36:30;3.08;;;1.90;;
64959;SDS011;51487;52.266;10.542;2023-07-30T03:38:56;2.30;;;1.80;;
64959;SDS011;51487;52.266;10.542;2023-07-30T03:41:21;3.28;;;1.80;;
64959;SDS011;51487;52.266;10.542;2023-07-30T03:43:47;2.40;;;1.85;;
64959;SDS011;51487;52.266;10.542;2023-07-30T03:46:13;5.95;;;2.20;;
64959;SDS011;51487;52.266;10.542;2023-07-30T03:48:38;2.90;;;2.00;;
64959;SDS011;51487;52.266;10.542;2023-07-30T03:51:04;2.97;;;2.10;;
64959;SDS011;51487;52.266;10.542;2023-07-30T03:53:32;2.75;;;2.00;;
64959;SDS011;51487;52.266;10.542;2023-07-30T03:55:57;3.67;;;1.80;;
64959;SDS011;51487;52.266;10.542;2023-07-30T03:58:23;2.88;;;2.10;;
64959;SDS011;51487;52.266;10.542;2023-07-30T04:00:48;4.82;;;2.00;;
64959;SDS011;51487;52.266;10.542;2023-07-30T04:03:14;5.10;;;1.88;;
64959;SDS011;51487;52.266;10.542;2023-07-30T04:05:39;2.92;;;1.80;;
64959;SDS011;51487;52.266;10.542;2023-07-30T04:08:05;2.38;;;1.75;;
64959;SDS011;51487;52.266;10.542;2023-07-30T04:10:30;5.10;;;2.17;;
64959;SDS011;51487;52.266;10.542;2023-07-30T04:12:56;6.72;;;2.40;;
64959;SDS011;51487;52.266;10.542;2023-07-30T04:15:21;4.03;;;2.05;;
64959;SDS011;51487;52.266;10.542;2023-07-30T04:17:47;4.75;;;2.30;;
64959;SDS011;51487;52.266;10.542;2023-07-30T04:20:13;4.35;;;1.95;;
64959;SDS011;51487;52.266;10.542;2023-07-30T04:22:42;5.28;;;2.30;;
64959;SDS011;51487;52.266;10.542;2023-07-30T04:25:09;4.95;;;2.13;;
64959;SDS011;51487;52.266;10.542;2023-07-30T04:27:37;4.97;;;2.08;;
64959;SDS011;51487;52.266;10.542;2023-07-30T04:30:06;4.45;;;2.10;;
64959;SDS011;51487;52.266;10.542;2023-07-30T04:32:32;4.32;;;1.85;;
64959;SDS011;51487;52.266;10.542;2023-07-30T04:34:58;4.20;;;2.00;;
64959;SDS011;51487;52.266;10.542;2023-07-30T04:37:24;2.67;;;1.70;;
64959;SDS011;51487;52.266;10.542;2023-07-30T04:39:49;3.55;;;2.22;;
64959;SDS011;51487;52.266;10.542;2023-07-30T04:42:15;4.75;;;2.20;;
64959;SDS011;51487;52.266;10.542;2023-07-30T04:44:40;4.38;;;1.77;;
64959;SDS011;51487;52.266;10.542;2023-07-30T04:47:06;5.20;;;2.38;;
64959;SDS011;51487;52.266;10.542;2023-07-30T04:49:32;6.22;;;2.30;;
64959;SDS011;51487;52.266;10.542;2023-07-30T04:51:58;5.15;;;1.98;;
64959;SDS011;51487;52.266;10.542;2023-07-30T04:54:24;13.60;;;3.53;;
64959;SDS011;51487;52.266;10.542;2023-07-30T04:56:50;10.05;;;2.58;;
64959;SDS011;51487;52.266;10.542;2023-07-30T04:59:15;4.18;;;2.08;;
64959;SDS011;51487;52.266;10.542;2023-07-30T05:01:41;4.57;;;2.08;;
64959;SDS011;51487;52.266;10.542;2023-07-30T05:04:06;6.57;;;1.90;;
64959;SDS011;51487;52.266;10.542;2023-07-30T05:06:32;4.45;;;2.30;;
64959;SDS011;51487;52.266;10.542;2023-07-30T05:08:58;3.85;;;2.15;;
64959;SDS011;51487;52.266;10.542;2023-07-30T05:11:23;7.75;;;2.83;;
64959;SDS011;51487;52.266;10.542;2023-07-30T05:13:49;8.60;;;3.05;;
64959;SDS011;51487;52.266;10.542;2023-07-30T05:16:15;6.10;;;2.17;;
64959;SDS011;51487;52.266;10.542;2023-07-30T05:18:40;5.50;;;2.20;;
64959;SDS011;51487;52.266;10.542;2023-07-30T05:21:06;9.55;;;2.33;;
64959;SDS011;51487;52.266;10.542;2023-07-30T05:23:31;6.00;;;2.20;;
64959;SDS011;51487;52.266;10.542;2023-07-30T05:25:57;7.65;;;2.03;;
64959;SDS011;51487;52.266;10.542;2023-07-30T05:28:22;9.15;;;2.33;;
64959;SDS011;51487;52.266;10.542;2023-07-30T05:30:48;6.38;;;2.20;;
64959;SDS011;51487;52.266;10.542;2023-07-30T05:33:13;5.38;;;1.90;;
64959;SDS011;51487;52.266;10.542;2023-07-30T05:35:39;6.32;;;2.20;;
64959;SDS011;51487;52.266;10.542;2023-07-30T05:38:04;8.43;;;2.20;;
64959;SDS011;51487;52.266;10.542;2023-07-30T05:40:30;7.68;;;2.50;;
64959;SDS011;51487;52.266;10.542;2023-07-30T05:42:55;6.47;;;2.20;;
64959;SDS011;51487;52.266;10.542;2023-07-30T05:45:21;5.35;;;2.05;;
64959;SDS011;51487;52.266;10.542;2023-07-30T05:47:47;5.18;;;1.85;;
64959;SDS011;51487;52.266;10.542;2023-07-30T05:50:12;8.82;;;2.42;;
64959;SDS011;51487;52.266;10.542;2023-07-30T05:52:38;3.55;;;1.90;;
64959;SDS011;51487;52.266;10.542;2023-07-30T05:55:03;6.15;;;2.30;;
64959;SDS011;51487;52.266;10.542;2023-07-30T05:57:29;6.70;;;2.55;;
64959;SDS011;51487;52.266;10.542;2023-07-30T05:59:55;4.93;;;2.20;;
64959;SDS011;51487;52.266;10.542;2023-07-30T06:02:21;7.00;;;2.50;;
64959;SDS011;51487;52.266;10.542;2023-07-30T06:04:46;5.38;;;2.15;;
64959;SDS011;51487;52.266;10.542;2023-07-30T06:07:13;5.10;;;3.05;;
64959;SDS011;51487;52.266;10.542;2023-07-30T06:09:39;5.88;;;2.55;;
64959;SDS011;51487;52.266;10.542;2023-07-30T06:12:05;5.63;;;2.63;;
64959;SDS011;51487;52.266;10.542;2023-07-30T06:14:30;5.13;;;3.08;;
64959;SDS011;51487;52.266;10.542;2023-07-30T06:16:56;5.28;;;2.88;;
64959;SDS011;51487;52.266;10.542;2023-07-30T06:19:21;4.50;;;2.83;;
64959;SDS011;51487;52.266;10.542;2023-07-30T06:21:47;6.38;;;3.38;;
64959;SDS011;51487;52.266;10.542;2023-07-30T06:24:13;8.00;;;3.65;;
64959;SDS011;51487;52.266;10.542;2023-07-30T06:26:38;10.27;;;3.53;;
64959;SDS011;51487;52.266;10.542;2023-07-30T06:29:06;9.77;;;3.78;;
64959;SDS011;51487;52.266;10.542;2023-07-30T06:31:32;9.60;;;3.65;;
64959;SDS011;51487;52.266;10.542;2023-07-30T06:33:57;6.35;;;3.63;;
64959;SDS011;51487;52.266;10.542;2023-07-30T06:36:23;7.63;;;3.88;;
64959;SDS011;51487;52.266;10.542;2023-07-30T06:38:48;7.60;;;3.83;;
64959;SDS011;51487;52.266;10.542;2023-07-30T06:41:14;6.38;;;3.60;;
64959;SDS011;51487;52.266;10.542;2023-07-30T06:43:39;7.82;;;3.67;;
64959;SDS011;51487;52.266;10.542;2023-07-30T06:46:05;8.40;;;3.63;;
64959;SDS011;51487;52.266;10.542;2023-07-30T06:48:30;8.52;;;3.63;;
64959;SDS011;51487;52.266;10.542;2023-07-30T06:50:56;7.65;;;3.80;;
64959;SDS011;51487;52.266;10.542;2023-07-30T06:53:22;7.40;;;4.00;;
64959;SDS011;51487;52.266;10.542;2023-07-30T06:55:48;8.10;;;4.00;;
64959;SDS011;51487;52.266;10.542;2023-07-30T06:58:13;8.30;;;3.38;;
64959;SDS011;51487;52.266;10.542;2023-07-30T07:00:39;7.20;;;3.47;;
64959;SDS011;51487;52.266;10.542;2023-07-30T07:03:05;7.15;;;3.63;;
64959;SDS011;51487;52.266;10.542;2023-07-30T07:05:31;6.07;;;3.17;;
64959;SDS011;51487;52.266;10.542;2023-07-30T07:07:56;6.35;;;3.22;;
64959;SDS011;51487;52.266;10.542;2023-07-30T07:10:22;6.03;;;3.33;;
64959;SDS011;51487;52.266;10.542;2023-07-30T07:12:47;5.22;;;2.88;;
64959;SDS011;51487;52.266;10.542;2023-07-30T07:15:13;6.40;;;3.20;;
64959;SDS011;51487;52.266;10.542;2023-07-30T07:17:39;8.25;;;2.83;;
64959;SDS011;51487;52.266;10.542;2023-07-30T07:20:05;4.22;;;2.20;;
64959;SDS011;51487;52.266;10.542;2023-07-30T07:22:32;7.07;;;2.60;;
64959;SDS011;51487;52.266;10.542;2023-07-30T07:24:58;4.95;;;2.40;;
64959;SDS011;51487;52.266;10.542;2023-07-30T07:27:24;4.65;;;2.70;;
64959;SDS011;51487;52.266;10.542;2023-07-30T07:29:51;4.20;;;2.00;;
64959;SDS011;51487;52.266;10.542;2023-07-30T07:32:17;6.13;;;2.20;;
64959;SDS011;51487;52.266;10.542;2023-07-30T07:34:47;4.80;;;2.50;;
64959;SDS011;51487;52.266;10.542;2023-07-30T07:37:14;4.43;;;1.75;;
64959;SDS011;51487;52.266;10.542;2023-07-30T07:39:42;4.82;;;2.08;;
64959;SDS011;51487;52.266;10.542;2023-07-30T07:42:08;3.85;;;2.03;;
64959;SDS011;51487;52.266;10.542;2023-07-30T07:44:34;3.28;;;1.85;;
64959;SDS011;51487;52.266;10.542;2023-07-30T07:47:00;7.40;;;2.15;;
64959;SDS011;51487;52.266;10.542;2023-07-30T07:49:26;4.53;;;1.90;;
64959;SDS011;51487;52.266;10.542;2023-07-30T07:51:54;3.88;;;1.60;;
64959;SDS011;51487;52.266;10.542;2023-07-30T07:54:19;6.90;;;1.95;;
64959;SDS011;51487;52.266;10.542;2023-07-30T07:56:45;2.83;;;1.40;;
64959;SDS011;51487;52.266;10.542;2023-07-30T07:59:10;6.72;;;1.60;;
64959;SDS011;51487;52.266;10.542;2023-07-30T08:01:36;3.85;;;1.63;;
64959;SDS011;51487;52.266;10.542;2023-07-30T08:04:02;3.05;;;1.42;;
64959;SDS011;51487;52.266;10.542;2023-07-30T08:06:28;3.97;;;1.80;;
64959;SDS011;51487;52.266;10.542;2023-07-30T08:08:54;3.88;;;1.35;;
64959;SDS011;51487;52.266;10.542;2023-07-30T08:11:20;3.25;;;1.67;;
64959;SDS011;51487;52.266;10.542;2023-07-30T08:13:45;3.28;;;1.70;;
64959;SDS011;51487;52.266;10.542;2023-07-30T08:16:11;3.92;;;1.60;;
64959;SDS011;51487;52.266;10.542;2023-07-30T08:18:37;5.07;;;1.70;;
64959;SDS011;51487;52.266;10.542;2023-07-30T08:21:03;3.65;;;1.70;;
64959;SDS011;51487;52.266;10.542;2023-07-30T08:23:28;3.50;;;1.77;;
64959;SDS011;51487;52.266;10.542;2023-07-30T08:25:54;5.68;;;1.75;;
64959;SDS011;51487;52.266;10.542;2023-07-30T08:28:20;6.57;;;1.70;;
64959;SDS011;51487;52.266;10.542;2023-07-30T08:30:46;3.15;;;1.60;;
64959;SDS011;51487;52.266;10.542;2023-07-30T08:33:11;6.95;;;1.65;;
64959;SDS011;51487;52.266;10.542;2023-07-30T08:35:37;4.75;;;1.63;;
64959;SDS011;51487;52.266;10.542;2023-07-30T08:38:03;4.20;;;1.80;;
64959;SDS011;51487;52.266;10.542;2023-07-30T08:40:29;4.78;;;1.50;;
64959;SDS011;51487;52.266;10.542;2023-07-30T08:42:54;3.17;;;1.50;;
64959;SDS011;51487;52.266;10.542;2023-07-30T08:45:20;3.80;;;1.65;;
64959;SDS011;51487;52.266;10.542;2023-07-30T08:47:46;5.82;;;1.67;;
64959;SDS011;51487;52.266;10.542;2023-07-30T08:50:12;4.03;;;1.60;;
64959;SDS011;51487;52.266;10.542;2023-07-30T08:52:39;5.80;;;1.77;;
64959;SDS011;51487;52.266;10.542;2023-07-30T08:55:06;4.38;;;1.60;;
64959;SDS011;51487;52.266;10.542;2023-07-30T08:57:33;8.93;;;1.77;;
64959;SDS011;51487;52.266;10.542;2023-07-30T09:00:03;4.47;;;1.60;;
64959;SDS011;51487;52.266;10.542;2023-07-30T09:05:19;4.30;;;1.77;;
64959;SDS011;51487;52.266;10.542;2023-07-30T09:07:46;3.78;;;1.70;;
64959;SDS011;51487;52.266;10.542;2023-07-30T09:10:12;3.92;;;1.70;;
64959;SDS011;51487;52.266;10.542;2023-07-30T09:12:40;4.78;;;1.80;;
64959;SDS011;51487;52.266;10.542;2023-07-30T09:15:06;3.75;;;1.55;;
64959;SDS011;51487;52.266;10.542;2023-07-30T09:17:33;4.10;;;1.48;;
64959;SDS011;51487;52.266;10.542;2023-07-30T09:19:59;5.93;;;1.70;;
64959;SDS011;51487;52.266;10.542;2023-07-30T09:22:29;4.38;;;1.63;;
64959;SDS011;51487;52.266;10.542;2023-07-30T09:25:00;3.10;;;1.40;;
64959;SDS011;51487;52.266;10.542;2023-07-30T09:27:27;4.03;;;1.60;;
64959;SDS011;51487;52.266;10.542;2023-07-30T09:29:57;5.25;;;1.52;;
64959;SDS011;51487;52.266;10.542;2023-07-30T09:32:34;2.25;;;1.60;;
64959;SDS011;51487;52.266;10.542;2023-07-30T09:35:04;4.53;;;1.70;;
64959;SDS011;51487;52.266;10.542;2023-07-30T09:37:37;6.90;;;2.00;;
64959;SDS011;51487;52.266;10.542;2023-07-30T09:40:13;2.72;;;1.42;;
64959;SDS011;51487;52.266;10.542;2023-07-30T09:42:46;4.57;;;1.45;;
64959;SDS011;51487;52.266;10.542;2023-07-30T09:45:20;3.47;;;1.50;;
64959;SDS011;51487;52.266;10.542;2023-07-30T09:47:49;5.00;;;1.42;;
64959;SDS011;51487;52.266;10.542;2023-07-30T09:50:19;3.88;;;1.45;;
64959;SDS011;51487;52.266;10.542;2023-07-30T09:52:48;3.40;;;1.48;;
64959;SDS011;51487;52.266;10.542;2023-07-30T09:55:15;5.38;;;1.48;;
64959;SDS011;51487;52.266;10.542;2023-07-30T09:57:43;2.85;;;1.45;;
64959;SDS011;51487;52.266;10.542;2023-07-30T10:00:09;4.20;;;1.45;;
64959;SDS011;51487;52.266;10.542;2023-07-30T10:02:37;4.55;;;1.60;;
64959;SDS011;51487;52.266;10.542;2023-07-30T10:05:12;3.40;;;1.35;;
64959;SDS011;51487;52.266;10.542;2023-07-30T10:10:34;2.97;;;1.38;;
64959;SDS011;51487;52.266;10.542;2023-07-30T10:13:02;1.95;;;1.13;;
64959;SDS011;51487;52.266;10.542;2023-07-30T10:15:35;3.92;;;1.52;;
64959;SDS011;51487;52.266;10.542;2023-07-30T10:18:03;7.38;;;1.60;;
64959;SDS011;51487;52.266;10.542;2023-07-30T10:20:30;4.38;;;1.70;;
64959;SDS011;51487;52.266;10.542;2023-07-30T10:23:00;4.22;;;1.48;;
64959;SDS011;51487;52.266;10.542;2023-07-30T10:25:31;6.35;;;1.50;;
64959;SDS011;51487;52.266;10.542;2023-07-30T10:28:31;5.75;;;1.40;;
64959;SDS011;51487;52.266;10.542;2023-07-30T10:31:04;3.60;;;1.60;;
64959;SDS011;51487;52.266;10.542;2023-07-30T10:33:43;7.00;;;1.75;;
64959;SDS011;51487;52.266;10.542;2023-07-30T10:36:12;4.88;;;1.80;;
64959;SDS011;51487;52.266;10.542;2023-07-30T10:38:42;3.67;;;1.45;;
64959;SDS011;51487;52.266;10.542;2023-07-30T10:41:10;5.05;;;1.50;;
64959;SDS011;51487;52.266;10.542;2023-07-30T10:43:43;4.88;;;1.60;;
64959;SDS011;51487;52.266;10.542;2023-07-30T10:46:15;4.47;;;1.63;;
64959;SDS011;51487;52.266;10.542;2023-07-30T10:48:44;4.72;;;1.45;;
64959;SDS011;51487;52.266;10.542;2023-07-30T10:51:13;5.22;;;1.90;;
64959;SDS011;51487;52.266;10.542;2023-07-30T10:54:05;4.82;;;1.40;;
64959;SDS011;51487;52.266;10.542;2023-07-30T10:56:36;3.15;;;1.52;;
64959;SDS011;51487;52.266;10.542;2023-07-30T10:59:12;2.17;;;1.40;;
64959;SDS011;51487;52.266;10.542;2023-07-30T11:01:44;7.85;;;1.73;;
64959;SDS011;51487;52.266;10.542;2023-07-30T11:04:11;3.22;;;1.42;;
64959;SDS011;51487;52.266;10.542;2023-07-30T11:11:51;4.43;;;1.98;;
64959;SDS011;51487;52.266;10.542;2023-07-30T11:14:19;3.80;;;2.03;;
64959;SDS011;51487;52.266;10.542;2023-07-30T11:16:51;4.47;;;1.70;;
64959;SDS011;51487;52.266;10.542;2023-07-30T11:19:20;3.15;;;1.80;;
64959;SDS011;51487;52.266;10.542;2023-07-30T11:21:49;7.07;;;1.70;;
64959;SDS011;51487;52.266;10.542;2023-07-30T11:24:17;3.38;;;1.60;;
64959;SDS011;51487;52.266;10.542;2023-07-30T11:26:43;3.58;;;1.67;;
64959;SDS011;51487;52.266;10.542;2023-07-30T11:29:15;4.00;;;1.50;;
64959;SDS011;51487;52.266;10.542;2023-07-30T11:31:45;5.10;;;2.05;;
64959;SDS011;51487;52.266;10.542;2023-07-30T11:34:15;3.95;;;1.70;;
64959;SDS011;51487;52.266;10.542;2023-07-30T11:36:43;4.35;;;1.83;;
64959;SDS011;51487;52.266;10.542;2023-07-30T11:39:10;7.72;;;2.08;;
64959;SDS011;51487;52.266;10.542;2023-07-30T11:41:36;8.27;;;2.30;;
64959;SDS011;51487;52.266;10.542;2023-07-30T11:44:03;8.20;;;2.53;;
64959;SDS011;51487;52.266;10.542;2023-07-30T11:46:29;6.15;;;2.10;;
64959;SDS011;51487;52.266;10.542;2023-07-30T11:49:10;5.95;;;1.80;;
64959;SDS011;51487;52.266;10.542;2023-07-30T11:51:42;6.63;;;2.15;;
64959;SDS011;51487;52.266;10.542;2023-07-30T11:54:17;7.20;;;2.40;;
64959;SDS011;51487;52.266;10.542;2023-07-30T11:56:45;5.03;;;2.20;;
64959;SDS011;51487;52.266;10.542;2023-07-30T11:59:10;6.00;;;1.88;;
64959;SDS011;51487;52.266;10.542;2023-07-30T12:01:36;8.25;;;2.33;;
64959;SDS011;51487;52.266;10.542;2023-07-30T12:04:02;5.93;;;1.98;;
64959;SDS011;51487;52.266;10.542;2023-07-30T12:06:44;5.65;;;2.00;;
64959;SDS011;51487;52.266;10.542;2023-07-30T12:11:48;4.05;;;1.80;;
64959;SDS011;51487;52.266;10.542;2023-07-30T12:14:26;6.78;;;2.33;;
64959;SDS011;51487;52.266;10.542;2023-07-30T12:17:25;4.63;;;1.70;;
64959;SDS011;51487;52.266;10.542;2023-07-30T12:19:50;6.63;;;2.00;;
64959;SDS011;51487;52.266;10.542;2023-07-30T12:22:16;4.38;;;2.05;;
64959;SDS011;51487;52.266;10.542;2023-07-30T12:24:42;5.47;;;2.00;;
64959;SDS011;51487;52.266;10.542;2023-07-30T12:27:07;5.40;;;1.80;;
64959;SDS011;51487;52.266;10.542;2023-07-30T12:29:33;7.80;;;1.83;;
64959;SDS011;51487;52.266;10.542;2023-07-30T12:31:59;4.65;;;1.85;;
64959;SDS011;51487;52.266;10.542;2023-07-30T12:34:24;4.45;;;1.92;;
64959;SDS011;51487;52.266;10.542;2023-07-30T12:37:11;5.20;;;1.67;;
64959;SDS011;51487;52.266;10.542;2023-07-30T12:39:39;3.58;;;1.70;;
64959;SDS011;51487;52.266;10.542;2023-07-30T12:42:10;4.72;;;1.50;;
64959;SDS011;51487;52.266;10.542;2023-07-30T12:44:42;4.45;;;1.73;;
64959;SDS011;51487;52.266;10.542;2023-07-30T12:47:08;6.32;;;1.58;;
64959;SDS011;51487;52.266;10.542;2023-07-30T12:49:34;3.70;;;1.67;;
64959;SDS011;51487;52.266;10.542;2023-07-30T12:52:00;5.68;;;2.03;;
64959;SDS011;51487;52.266;10.542;2023-07-30T12:54:25;7.45;;;1.90;;
64959;SDS011;51487;52.266;10.542;2023-07-30T12:56:51;7.43;;;1.60;;
64959;SDS011;51487;52.266;10.542;2023-07-30T12:59:20;6.55;;;1.83;;
64959;SDS011;51487;52.266;10.542;2023-07-30T13:01:46;5.45;;;2.20;;
64959;SDS011;51487;52.266;10.542;2023-07-30T13:04:11;6.72;;;1.60;;
64959;SDS011;51487;52.266;10.542;2023-07-30T13:06:37;6.47;;;2.15;;
64959;SDS011;51487;52.266;10.542;2023-07-30T13:09:03;6.18;;;2.00;;
64959;SDS011;51487;52.266;10.542;2023-07-30T13:11:29;6.15;;;2.22;;
64959;SDS011;51487;52.266;10.542;2023-07-30T13:14:05;5.97;;;2.08;;
64959;SDS011;51487;52.266;10.542;2023-07-30T13:16:31;5.13;;;2.03;;
64959;SDS011;51487;52.266;10.542;2023-07-30T13:19:04;7.38;;;2.22;;
64959;SDS011;51487;52.266;10.542;2023-07-30T13:21:29;5.63;;;2.28;;
64959;SDS011;51487;52.266;10.542;2023-07-30T13:23:57;7.10;;;1.90;;
64959;SDS011;51487;52.266;10.542;2023-07-30T13:26:24;5.82;;;2.45;;
64959;SDS011;51487;52.266;10.542;2023-07-30T13:28:50;4.13;;;2.20;;
64959;SDS011;51487;52.266;10.542;2023-07-30T13:31:15;5.10;;;2.30;;
64959;SDS011;51487;52.266;10.542;2023-07-30T13:33:41;6.28;;;2.38;;
64959;SDS011;51487;52.266;10.542;2023-07-30T13:36:07;4.95;;;2.40;;
64959;SDS011;51487;52.266;10.542;2023-07-30T13:38:34;5.70;;;2.40;;
64959;SDS011;51487;52.266;10.542;2023-07-30T13:40:59;4.38;;;2.25;;
64959;SDS011;51487;52.266;10.542;2023-07-30T13:43:25;3.33;;;2.00;;
64959;SDS011;51487;52.266;10.542;2023-07-30T13:45:50;5.35;;;2.42;;
64959;SDS011;51487;52.266;10.542;2023-07-30T13:48:17;3.65;;;2.00;;
64959;SDS011;51487;52.266;10.542;2023-07-30T13:50:43;5.22;;;2.22;;
64959;SDS011;51487;52.266;10.542;2023-07-30T13:53:09;4.35;;;2.65;;
64959;SDS011;51487;52.266;10.542;2023-07-30T13:55:34;5.70;;;2.70;;
64959;SDS011;51487;52.266;10.542;2023-07-30T13:58:00;4.97;;;2.50;;
64959;SDS011;51487;52.266;10.542;2023-07-30T14:00:25;5.40;;;2.63;;
64959;SDS011;51487;52.266;10.542;2023-07-30T14:02:51;5.15;;;2.38;;
64959;SDS011;51487;52.266;10.542;2023-07-30T14:05:17;5.25;;;2.90;;
64959;SDS011;51487;52.266;10.542;2023-07-30T14:07:43;8.68;;;2.60;;
64959;SDS011;51487;52.266;10.542;2023-07-30T14:10:10;6.40;;;2.85;;
64959;SDS011;51487;52.266;10.542;2023-07-30T14:12:37;4.53;;;2.78;;
64959;SDS011;51487;52.266;10.542;2023-07-30T14:15:02;4.47;;;2.70;;
64959;SDS011;51487;52.266;10.542;2023-07-30T14:17:28;5.60;;;3.00;;
64959;SDS011;51487;52.266;10.542;2023-07-30T14:19:54;7.30;;;2.80;;
64959;SDS011;51487;52.266;10.542;2023-07-30T14:22:20;6.80;;;3.10;;
64959;SDS011;51487;52.266;10.542;2023-07-30T14:24:46;5.88;;;2.70;;
64959;SDS011;51487;52.266;10.542;2023-07-30T14:27:12;6.22;;;2.72;;
64959;SDS011;51487;52.266;10.542;2023-07-30T14:29:38;4.88;;;2.67;;
64959;SDS011;51487;52.266;10.542;2023-07-30T14:32:03;7.65;;;3.25;;
64959;SDS011;51487;52.266;10.542;2023-07-30T14:34:30;4.93;;;2.60;;
64959;SDS011;51487;52.266;10.542;2023-07-30T14:36:55;7.50;;;3.10;;
64959;SDS011;51487;52.266;10.542;2023-07-30T14:39:21;6.80;;;3.10;;
64959;SDS011;51487;52.266;10.542;2023-07-30T14:41:47;9.85;;;3.03;;
64959;SDS011;51487;52.266;10.542;2023-07-30T14:44:12;6.05;;;3.33;;
64959;SDS011;51487;52.266;10.542;2023-07-30T14:46:38;5.43;;;2.72;;